createdAt,value
2022-12-13T00:01:30.327Z,-2.16
2022-12-13T00:04:01.732Z,-2.16
2022-12-13T00:06:30.642Z,-2.15
2022-12-13T00:08:59.232Z,-2.14
2022-12-13T00:11:27.484Z,-2.13
2022-12-13T00:13:55.736Z,-2.11
2022-12-13T00:16:25.478Z,-2.10
2022-12-13T00:18:55.525Z,-2.12
2022-12-13T00:21:26.675Z,-2.15
2022-12-13T00:23:54.693Z,-2.17
2022-12-13T00:26:27.074Z,-2.18
2022-12-13T00:28:55.345Z,-2.21
2022-12-13T00:34:13.678Z,-2.28
2022-12-13T00:36:42.917Z,-2.28
2022-12-13T00:39:13.795Z,-2.29
2022-12-13T00:41:41.899Z,-2.28
2022-12-13T00:44:11.451Z,-2.31
2022-12-13T00:46:39.860Z,-2.34
2022-12-13T00:49:08.087Z,-2.34
2022-12-13T00:51:37.039Z,-2.37
2022-12-13T00:54:07.091Z,-2.38
2022-12-13T00:56:35.827Z,-2.39
2022-12-13T00:59:03.659Z,-2.40
2022-12-13T01:01:33.799Z,-2.42
2022-12-13T01:04:04.890Z,-2.44
2022-12-13T01:06:36.426Z,-2.45
2022-12-13T01:09:07.156Z,-2.48
2022-12-13T01:11:35.377Z,-2.47
2022-12-13T01:14:03.345Z,-2.50
2022-12-13T01:16:31.257Z,-2.48
2022-12-13T01:18:59.276Z,-2.47
2022-12-13T01:21:27.092Z,-2.46
2022-12-13T01:24:01.998Z,-2.45
2022-12-13T01:26:32.081Z,-2.44
2022-12-13T01:29:00.261Z,-2.44
2022-12-13T01:31:28.439Z,-2.44
2022-12-13T01:33:56.260Z,-2.47
2022-12-13T01:36:27.870Z,-2.50
2022-12-13T01:38:58.264Z,-2.52
2022-12-13T01:41:28.347Z,-2.56
2022-12-13T01:44:03.247Z,-2.57
2022-12-13T01:46:32.616Z,-2.59
2022-12-13T01:49:19.069Z,-2.62
2022-12-13T01:51:53.432Z,-2.65
2022-12-13T01:54:35.567Z,-2.66
2022-12-13T01:57:06.422Z,-2.66
2022-12-13T01:59:38.582Z,-2.68
2022-12-13T02:02:08.300Z,-2.69
2022-12-13T02:04:45.340Z,-2.70
2022-12-13T02:07:22.934Z,-2.72
2022-12-13T02:09:57.062Z,-2.74
2022-12-13T02:12:30.092Z,-2.78
2022-12-13T02:15:01.208Z,-2.78
2022-12-13T02:17:44.667Z,-2.80
2022-12-13T02:20:39.220Z,-2.82
2022-12-13T02:23:25.066Z,-2.83
2022-12-13T02:26:15.246Z,-2.83
2022-12-13T02:29:02.230Z,-2.84
2022-12-13T02:31:37.535Z,-2.83
2022-12-13T02:34:09.504Z,-2.80
2022-12-13T02:36:45.569Z,-2.79
2022-12-13T02:39:30.332Z,-2.79
2022-12-13T02:42:04.067Z,-2.80
2022-12-13T02:44:38.641Z,-2.81
2022-12-13T02:47:22.126Z,-2.83
2022-12-13T02:49:55.423Z,-2.87
2022-12-13T02:52:26.577Z,-2.88
2022-12-13T02:54:55.841Z,-2.91
2022-12-13T02:57:32.136Z,-2.94
2022-12-13T03:00:03.720Z,-2.95
2022-12-13T03:02:42.501Z,-2.95
2022-12-13T03:05:38.473Z,-2.96
2022-12-13T03:08:23.893Z,-3.00
2022-12-13T03:11:04.433Z,-3.00
2022-12-13T03:13:37.388Z,-3.02
2022-12-13T03:16:23.920Z,-3.03
2022-12-13T03:18:54.910Z,-3.03
2022-12-13T03:21:22.731Z,-3.06
2022-12-13T03:23:50.575Z,-3.07
2022-12-13T03:26:23.033Z,-3.10
2022-12-13T03:28:50.988Z,-3.09
2022-12-13T03:31:18.923Z,-3.12
2022-12-13T03:33:47.455Z,-3.12
2022-12-13T03:36:18.828Z,-3.13
2022-12-13T03:38:47.060Z,-3.14
2022-12-13T03:41:18.163Z,-3.15
2022-12-13T03:43:46.358Z,-3.13
2022-12-13T03:46:14.184Z,-3.12
2022-12-13T03:48:42.109Z,-3.12
2022-12-13T03:51:09.844Z,-3.11
2022-12-13T03:53:38.986Z,-3.12
2022-12-13T03:56:07.928Z,-3.12
2022-12-13T03:58:38.113Z,-3.13
2022-12-13T04:01:08.664Z,-3.17
2022-12-13T04:03:37.193Z,-3.20
2022-12-13T04:06:06.017Z,-3.21
2022-12-13T04:08:34.429Z,-3.24
2022-12-13T04:11:25.694Z,-3.26
2022-12-13T04:13:53.507Z,-3.28
2022-12-13T04:16:21.754Z,-3.27
2022-12-13T04:18:49.943Z,-3.28
2022-12-13T04:21:18.084Z,-3.30
2022-12-13T04:23:45.947Z,-3.30
2022-12-13T04:26:15.094Z,-3.31
2022-12-13T04:28:42.860Z,-3.34
2022-12-13T04:31:10.795Z,-3.33
2022-12-13T04:33:38.786Z,-3.34
2022-12-13T04:36:09.493Z,-3.36
2022-12-13T04:38:37.303Z,-3.38
2022-12-13T04:41:09.724Z,-3.37
2022-12-13T04:43:38.848Z,-3.41
2022-12-13T04:46:07.017Z,-3.41
2022-12-13T04:48:35.094Z,-3.43
2022-12-13T04:51:03.191Z,-3.45
2022-12-13T04:53:31.446Z,-3.45
2022-12-13T04:55:59.359Z,-3.46
2022-12-13T04:58:28.243Z,-3.44
2022-12-13T05:00:57.579Z,-3.42
2022-12-13T05:03:25.797Z,-3.38
2022-12-13T05:05:53.552Z,-3.38
2022-12-13T05:08:21.407Z,-3.39
2022-12-13T05:10:49.324Z,-3.41
2022-12-13T05:13:17.405Z,-3.43
2022-12-13T05:15:46.563Z,-3.49
2022-12-13T05:18:17.505Z,-3.51
2022-12-13T05:20:45.248Z,-3.53
2022-12-13T05:23:12.998Z,-3.53
2022-12-13T05:25:40.706Z,-3.55
2022-12-13T05:28:27.120Z,-3.56
2022-12-13T05:30:57.341Z,-3.56
2022-12-13T05:33:27.162Z,-3.56
2022-12-13T05:36:00.040Z,-3.58
2022-12-13T05:38:29.649Z,-3.60
2022-12-13T05:40:57.395Z,-3.61
2022-12-13T05:43:42.092Z,-3.63
2022-12-13T05:46:12.286Z,-3.64
2022-12-13T05:48:41.987Z,-3.70
2022-12-13T05:51:11.888Z,-3.74
2022-12-13T05:53:41.203Z,-3.74
2022-12-13T05:56:10.151Z,-3.72
2022-12-13T05:58:38.440Z,-3.73
2022-12-13T06:01:07.949Z,-3.72
2022-12-13T06:03:35.974Z,-3.73
2022-12-13T06:06:06.630Z,-3.75
2022-12-13T06:08:34.786Z,-3.78
2022-12-13T06:11:10.742Z,-3.78
2022-12-13T06:13:42.350Z,-3.74
2022-12-13T06:16:21.982Z,-3.73
2022-12-13T06:18:54.490Z,-3.72
2022-12-13T06:21:30.317Z,-3.70
2022-12-13T06:24:08.831Z,-3.70
2022-12-13T06:26:36.658Z,-3.72
2022-12-13T06:29:04.412Z,-3.74
2022-12-13T06:31:32.758Z,-3.75
2022-12-13T06:34:14.478Z,-3.75
2022-12-13T06:36:44.467Z,-3.79
2022-12-13T06:39:12.186Z,-3.81
2022-12-13T06:41:39.935Z,-3.83
2022-12-13T06:44:08.007Z,-3.84
2022-12-13T06:46:36.311Z,-3.85
2022-12-13T06:49:08.716Z,-3.87
2022-12-13T06:51:36.436Z,-3.89
2022-12-13T06:54:05.631Z,-3.88
2022-12-13T06:56:33.833Z,-3.89
2022-12-13T06:59:02.383Z,-3.89
2022-12-13T07:01:36.972Z,-3.92
2022-12-13T07:04:28.777Z,-3.95
2022-12-13T07:06:53.851Z,-3.96
2022-12-13T07:09:23.078Z,-3.97
2022-12-13T07:11:52.519Z,-3.98
2022-12-13T07:14:20.653Z,-3.98
2022-12-13T07:16:48.435Z,-3.99
2022-12-13T07:19:23.310Z,-4.01
2022-12-13T07:21:52.026Z,-4.01
2022-12-13T07:24:19.888Z,-4.04
2022-12-13T07:26:49.093Z,-4.03
2022-12-13T07:29:22.757Z,-4.04
2022-12-13T07:31:50.856Z,-4.02
2022-12-13T07:34:18.731Z,-4.00
2022-12-13T07:36:46.543Z,-3.99
2022-12-13T07:39:14.351Z,-3.97
2022-12-13T07:41:42.148Z,-3.97
2022-12-13T07:44:11.456Z,-3.99
2022-12-13T07:46:39.243Z,-4.00
2022-12-13T07:49:07.054Z,-4.03
2022-12-13T07:51:35.318Z,-4.08
2022-12-13T07:54:06.967Z,-4.07
2022-12-13T07:56:35.677Z,-4.07
2022-12-13T07:59:03.827Z,-4.08
2022-12-13T08:01:35.424Z,-4.09
2022-12-13T08:04:03.341Z,-4.12
2022-12-13T08:06:31.537Z,-4.15
2022-12-13T08:08:59.321Z,-4.16
2022-12-13T08:11:27.147Z,-4.16
2022-12-13T08:13:55.031Z,-4.16
2022-12-13T08:16:27.874Z,-4.15
2022-12-13T08:19:02.726Z,-4.15
2022-12-13T08:24:23.410Z,-4.16
2022-12-13T08:26:51.438Z,-4.15
2022-12-13T08:29:32.057Z,-4.16
2022-12-13T08:32:02.189Z,-4.16
2022-12-13T08:34:31.722Z,-4.15
2022-12-13T08:37:02.096Z,-4.13
2022-12-13T08:39:34.460Z,-4.11
2022-12-13T08:42:15.770Z,-4.09
2022-12-13T08:44:46.495Z,-4.06
2022-12-13T08:47:23.110Z,-4.01
2022-12-13T08:49:55.065Z,-3.92
2022-12-13T08:52:23.981Z,-3.85
2022-12-13T08:54:52.244Z,-3.80
2022-12-13T08:57:20.295Z,-3.78
2022-12-13T08:59:48.432Z,-3.76
2022-12-13T09:02:16.866Z,-3.76
2022-12-13T09:04:45.706Z,-3.74
2022-12-13T09:07:15.274Z,-3.72
2022-12-13T09:09:43.004Z,-3.70
2022-12-13T09:12:30.561Z,-3.69
2022-12-13T09:15:01.482Z,-3.68
2022-12-13T09:17:36.372Z,-3.66
2022-12-13T09:20:09.964Z,-3.66
2022-12-13T09:23:01.648Z,-3.64
2022-12-13T09:25:37.362Z,-3.60
2022-12-13T09:28:06.940Z,-3.57
2022-12-13T09:30:34.664Z,-3.52
2022-12-13T09:33:25.562Z,-3.49
2022-12-13T09:35:50.169Z,-3.42
2022-12-13T09:38:19.167Z,-3.36
2022-12-13T09:40:49.012Z,-3.30
2022-12-13T09:43:31.939Z,-3.28
2022-12-13T09:46:13.359Z,-3.21
2022-12-13T09:48:53.114Z,-3.18
2022-12-13T09:51:43.184Z,-3.11
2022-12-13T09:54:19.658Z,-3.05
2022-12-13T09:56:50.876Z,-2.98
2022-12-13T09:59:21.552Z,-2.93
2022-12-13T10:01:49.454Z,-2.87
2022-12-13T10:04:19.762Z,-2.80
2022-12-13T10:06:47.692Z,-2.74
2022-12-13T10:09:17.047Z,-2.70
2022-12-13T10:11:50.740Z,-2.65
2022-12-13T10:14:24.791Z,-2.61
2022-12-13T10:16:57.826Z,-2.58
2022-12-13T10:19:31.266Z,-2.55
2022-12-13T10:22:02.647Z,-2.53
2022-12-13T10:24:50.398Z,-2.52
2022-12-13T10:27:19.880Z,-2.51
2022-12-13T10:30:07.476Z,-2.48
2022-12-13T10:32:44.866Z,-2.44
2022-12-13T10:35:21.924Z,-2.39
2022-12-13T10:37:49.869Z,-2.35
2022-12-13T10:40:33.855Z,-2.34
2022-12-13T10:43:10.154Z,-2.29
2022-12-13T10:45:38.228Z,-2.25
2022-12-13T10:48:06.850Z,-2.23
2022-12-13T10:50:34.752Z,-2.19
2022-12-13T10:53:02.843Z,-2.17
2022-12-13T10:55:34.661Z,-2.11
2022-12-13T10:58:07.140Z,-2.04
2022-12-13T11:00:38.937Z,-1.97
2022-12-13T11:03:07.621Z,-1.90
2022-12-13T11:05:37.649Z,-1.86
2022-12-13T11:08:17.887Z,-1.82
2022-12-13T11:10:47.803Z,-1.77
2022-12-13T11:13:26.317Z,-1.73
2022-12-13T11:15:57.683Z,-1.63
2022-12-13T11:18:28.026Z,-1.59
2022-12-13T11:21:00.205Z,-1.52
2022-12-13T11:23:31.235Z,-1.46
2022-12-13T11:26:06.275Z,-1.40
2022-12-13T11:29:00.300Z,-1.35
2022-12-13T11:31:37.175Z,-1.30
2022-12-13T11:34:13.724Z,-1.24
2022-12-13T11:36:51.180Z,-1.20
2022-12-13T11:39:26.437Z,-1.20
2022-12-13T11:42:00.690Z,-1.18
2022-12-13T11:44:39.185Z,-1.14
2022-12-13T11:47:17.804Z,-1.08
2022-12-13T11:49:47.767Z,-1.02
2022-12-13T11:52:21.531Z,-0.95
2022-12-13T11:54:54.474Z,-0.87
2022-12-13T11:57:42.462Z,-0.80
2022-12-13T12:00:33.814Z,-0.73
2022-12-13T12:03:15.872Z,-0.62
2022-12-13T12:05:49.677Z,-0.54
2022-12-13T12:08:33.155Z,-0.49
2022-12-13T12:11:09.366Z,-0.48
2022-12-13T12:13:51.389Z,-0.40
2022-12-13T12:16:29.822Z,-0.36
2022-12-13T12:19:01.287Z,-0.25
2022-12-13T12:22:12.261Z,-0.18
2022-12-13T12:24:35.515Z,-0.13
2022-12-13T12:27:22.638Z,-0.12
2022-12-13T12:30:08.444Z,-0.09
2022-12-13T12:32:46.145Z,-0.04
2022-12-13T12:35:45.716Z,0.01
2022-12-13T12:38:30.171Z,0.08
2022-12-13T12:41:19.130Z,0.13
2022-12-13T12:43:55.531Z,0.16
2022-12-13T12:47:01.517Z,0.16
2022-12-13T12:49:53.330Z,0.19
2022-12-13T12:52:29.368Z,0.19
2022-12-13T12:55:05.113Z,0.23
2022-12-13T12:57:44.306Z,0.28
2022-12-13T13:00:15.632Z,0.34
2022-12-13T13:02:52.411Z,0.40
2022-12-13T13:05:23.947Z,0.46
2022-12-13T13:07:57.615Z,0.52
2022-12-13T13:10:26.756Z,0.58
2022-12-13T13:13:12.454Z,0.62
2022-12-13T13:15:57.137Z,0.63
2022-12-13T13:18:46.526Z,0.66
2022-12-13T13:21:53.654Z,0.72
2022-12-13T13:24:25.104Z,0.76
2022-12-13T13:26:55.729Z,0.81
2022-12-13T13:29:43.520Z,0.83
2022-12-13T13:32:40.721Z,0.81
2022-12-13T13:35:50.315Z,0.81
2022-12-13T13:38:51.437Z,0.80
2022-12-13T13:41:41.493Z,0.82
2022-12-13T13:44:34.452Z,0.82
2022-12-13T13:47:12.289Z,0.86
2022-12-13T13:50:02.073Z,0.88
2022-12-13T13:52:38.065Z,0.89
2022-12-13T13:55:40.590Z,0.88
2022-12-13T13:58:48.204Z,0.85
2022-12-13T14:02:01.386Z,0.86
2022-12-13T14:05:11.306Z,0.85
2022-12-13T14:08:10.215Z,0.85
2022-12-13T14:10:57.023Z,0.85
2022-12-13T14:14:22.056Z,0.86
2022-12-13T14:17:38.561Z,0.85
2022-12-13T14:20:32.507Z,0.87
2022-12-13T14:23:06.688Z,0.89
2022-12-13T14:25:57.828Z,0.85
2022-12-13T14:28:38.355Z,0.86
2022-12-13T14:31:21.608Z,0.84
2022-12-13T14:33:52.092Z,0.83
2022-12-13T14:36:28.433Z,0.79
2022-12-13T14:39:03.342Z,0.78
2022-12-13T14:41:32.718Z,0.79
2022-12-13T14:44:25.413Z,0.74
2022-12-13T14:46:56.532Z,0.75
2022-12-13T14:49:27.475Z,0.75
2022-12-13T14:52:03.025Z,0.74
2022-12-13T14:54:39.470Z,0.73
2022-12-13T14:57:18.172Z,0.69
2022-12-13T14:59:50.408Z,0.68
2022-12-13T15:02:30.248Z,0.66
2022-12-13T15:05:01.800Z,0.65
2022-12-13T15:07:33.274Z,0.63
2022-12-13T15:10:04.235Z,0.62
2022-12-13T15:12:33.496Z,0.60
2022-12-13T15:15:03.974Z,0.55
2022-12-13T15:17:34.407Z,0.51
2022-12-13T15:20:03.211Z,0.47
2022-12-13T15:22:31.441Z,0.42
2022-12-13T15:24:59.706Z,0.39
2022-12-13T15:27:28.204Z,0.36
2022-12-13T15:29:57.565Z,0.32
2022-12-13T15:32:25.481Z,0.28
2022-12-13T15:34:53.329Z,0.25
2022-12-13T15:37:29.806Z,0.22
2022-12-13T15:40:02.088Z,0.18
2022-12-13T15:42:34.338Z,0.15
2022-12-13T15:45:07.872Z,0.12
2022-12-13T15:47:35.833Z,0.11
2022-12-13T15:50:06.902Z,0.09
2022-12-13T15:52:38.033Z,0.08
2022-12-13T15:55:28.912Z,0.02
2022-12-13T15:57:58.869Z,0.00
2022-12-13T16:00:31.687Z,-0.03
2022-12-13T16:03:09.530Z,-0.05
2022-12-13T16:05:41.344Z,-0.07
2022-12-13T16:08:21.863Z,-0.08
2022-12-13T16:10:51.244Z,-0.09
2022-12-13T16:13:26.690Z,-0.10
2022-12-13T16:16:00.507Z,-0.10
2022-12-13T16:18:45.835Z,-0.10
2022-12-13T16:21:14.636Z,-0.10
2022-12-13T16:23:48.810Z,-0.09
2022-12-13T16:26:23.061Z,-0.09
2022-12-13T16:28:50.960Z,-0.10
2022-12-13T16:31:22.362Z,-0.12
2022-12-13T16:33:50.236Z,-0.14
2022-12-13T16:36:18.379Z,-0.17
2022-12-13T16:38:46.367Z,-0.19
2022-12-13T16:41:15.813Z,-0.20
2022-12-13T16:43:55.054Z,-0.22
2022-12-13T16:47:13.208Z,-0.22
2022-12-13T16:49:20.550Z,-0.26
2022-12-13T16:51:49.209Z,-0.26
2022-12-13T16:54:18.424Z,-0.28
2022-12-13T16:56:47.015Z,-0.29
2022-12-13T16:59:16.131Z,-0.31
2022-12-13T17:01:46.322Z,-0.30
2022-12-13T17:04:20.155Z,-0.24
2022-12-13T17:06:49.406Z,-0.17
2022-12-13T17:09:17.714Z,-0.11
2022-12-13T17:11:46.076Z,-0.07
2022-12-13T17:14:13.856Z,-0.05
2022-12-13T17:16:42.065Z,-0.03
2022-12-13T17:19:15.382Z,-0.01
2022-12-13T17:21:43.224Z,0.01
2022-12-13T17:24:11.075Z,0.03
2022-12-13T17:26:38.879Z,0.03
2022-12-13T17:29:06.686Z,0.04
2022-12-13T17:31:36.152Z,0.05
2022-12-13T17:34:05.656Z,0.07
2022-12-13T17:36:35.087Z,0.08
2022-12-13T17:39:03.122Z,0.10
2022-12-13T17:41:30.951Z,0.09
2022-12-13T17:44:01.033Z,0.08
2022-12-13T17:46:28.942Z,0.05
2022-12-13T17:48:56.822Z,0.02
2022-12-13T17:51:24.670Z,0.02
2022-12-13T17:53:53.917Z,0.02
2022-12-13T17:56:22.072Z,0.01
2022-12-13T17:58:50.001Z,0.01
2022-12-13T18:01:20.054Z,-0.01
2022-12-13T18:03:48.965Z,0.00
2022-12-13T18:06:17.334Z,-0.02
2022-12-13T18:08:46.802Z,-0.03
2022-12-13T18:11:34.367Z,-0.02
2022-12-13T18:14:03.321Z,-0.04
2022-12-13T18:16:36.854Z,-0.06
2022-12-13T18:19:07.032Z,-0.09
2022-12-13T18:21:36.921Z,-0.09
2022-12-13T18:24:05.679Z,-0.10
2022-12-13T18:26:35.523Z,-0.11
2022-12-13T18:29:03.945Z,-0.11
2022-12-13T18:31:31.875Z,-0.13
2022-12-13T18:33:59.752Z,-0.13
2022-12-13T18:36:27.744Z,-0.13
2022-12-13T18:38:55.732Z,-0.14
2022-12-13T18:41:28.979Z,-0.16
2022-12-13T18:43:59.943Z,-0.17
2022-12-13T18:46:29.074Z,-0.18
2022-12-13T18:48:58.271Z,-0.20
2022-12-13T18:51:26.761Z,-0.19
2022-12-13T18:53:56.161Z,-0.16
2022-12-13T18:56:25.146Z,-0.14
2022-12-13T18:58:53.546Z,-0.11
2022-12-13T19:01:27.367Z,-0.11
2022-12-13T19:03:55.970Z,-0.12
2022-12-13T19:06:26.237Z,-0.15
2022-12-13T19:08:55.608Z,-0.17
2022-12-13T19:11:25.892Z,-0.20
2022-12-13T19:13:54.054Z,-0.23
2022-12-13T19:16:24.623Z,-0.25
2022-12-13T19:18:52.639Z,-0.29
2022-12-13T19:21:22.651Z,-0.32
2022-12-13T19:23:56.847Z,-0.35
2022-12-13T19:26:26.233Z,-0.38
2022-12-13T19:28:54.006Z,-0.42
2022-12-13T19:31:28.744Z,-0.44
2022-12-13T19:34:00.019Z,-0.47
2022-12-13T19:36:27.840Z,-0.50
2022-12-13T19:38:56.954Z,-0.51
2022-12-13T19:41:25.272Z,-0.52
2022-12-13T19:43:54.071Z,-0.55
2022-12-13T19:46:23.557Z,-0.58
2022-12-13T19:48:51.422Z,-0.62
2022-12-13T19:51:19.892Z,-0.64
2022-12-13T19:53:47.671Z,-0.65
2022-12-13T19:56:17.880Z,-0.67
2022-12-13T19:58:46.842Z,-0.68
2022-12-13T20:01:15.395Z,-0.69
2022-12-13T20:03:46.611Z,-0.69
2022-12-13T20:06:17.901Z,-0.68
2022-12-13T20:08:48.330Z,-0.69
2022-12-13T20:11:19.582Z,-0.68
2022-12-13T20:13:48.540Z,-0.66
2022-12-13T20:16:18.442Z,-0.68
2022-12-13T20:18:48.672Z,-0.68
2022-12-13T20:21:17.201Z,-0.71
2022-12-13T20:23:49.197Z,-0.74
2022-12-13T20:26:20.352Z,-0.75
2022-12-13T20:28:48.964Z,-0.75
2022-12-13T20:31:19.401Z,-0.75
2022-12-13T20:33:49.867Z,-0.75
2022-12-13T20:36:27.877Z,-0.74
2022-12-13T20:38:57.208Z,-0.75
2022-12-13T20:41:26.712Z,-0.75
2022-12-13T20:43:55.386Z,-0.74
2022-12-13T20:46:24.450Z,-0.74
2022-12-13T20:48:55.235Z,-0.75
2022-12-13T20:51:24.929Z,-0.77
2022-12-13T20:53:54.268Z,-0.77
2022-12-13T20:56:24.197Z,-0.78
2022-12-13T20:58:52.287Z,-0.78
2022-12-13T21:01:22.326Z,-0.79
2022-12-13T21:03:50.976Z,-0.81
2022-12-13T21:06:20.439Z,-0.82
2022-12-13T21:08:55.856Z,-0.81
2022-12-13T21:11:26.882Z,-0.84
2022-12-13T21:14:05.298Z,-0.84
2022-12-13T21:16:39.500Z,-0.86
2022-12-13T21:19:09.365Z,-0.88
2022-12-13T21:21:40.085Z,-0.87
2022-12-13T21:24:09.580Z,-0.84
2022-12-13T21:26:39.644Z,-0.81
2022-12-13T21:29:11.270Z,-0.81
2022-12-13T21:31:43.081Z,-0.83
2022-12-13T21:34:13.054Z,-0.84
2022-12-13T21:36:45.421Z,-0.85
2022-12-13T21:39:16.104Z,-0.84
2022-12-13T21:41:46.002Z,-0.86
2022-12-13T21:44:15.385Z,-0.86
2022-12-13T21:47:11.414Z,-0.86
2022-12-13T21:49:33.387Z,-0.88
2022-12-13T21:52:03.377Z,-0.89
2022-12-13T21:54:32.478Z,-0.94
2022-12-13T21:57:18.088Z,-0.93
2022-12-13T21:59:47.522Z,-0.96
2022-12-13T22:02:18.552Z,-0.97
2022-12-13T22:04:48.914Z,-0.96
2022-12-13T22:07:20.620Z,-0.95
2022-12-13T22:09:50.500Z,-0.95
2022-12-13T22:12:22.587Z,-0.94
2022-12-13T22:14:51.624Z,-0.96
2022-12-13T22:17:26.959Z,-0.97
2022-12-13T22:19:56.710Z,-0.98
2022-12-13T22:22:27.276Z,-0.97
2022-12-13T22:24:55.726Z,-0.97
2022-12-13T22:27:26.052Z,-0.96
2022-12-13T22:29:57.248Z,-0.94
2022-12-13T22:32:27.049Z,-0.94
2022-12-13T22:34:56.259Z,-0.97
2022-12-13T22:37:25.763Z,-0.95
2022-12-13T22:39:54.430Z,-0.92
2022-12-13T22:42:22.991Z,-0.90
2022-12-13T22:44:51.042Z,-0.88
2022-12-13T22:47:18.961Z,-0.86
2022-12-13T22:49:48.697Z,-0.87
2022-12-13T22:52:17.592Z,-0.87
2022-12-13T22:54:46.846Z,-0.89
2022-12-13T22:57:14.823Z,-0.90
2022-12-13T22:59:42.958Z,-0.92
2022-12-13T23:02:10.961Z,-0.94
2022-12-13T23:04:39.390Z,-0.97
2022-12-13T23:07:07.684Z,-0.99
2022-12-13T23:09:35.805Z,-1.01
2022-12-13T23:12:23.054Z,-1.01
2022-12-13T23:14:54.745Z,-1.02
2022-12-13T23:17:23.300Z,-1.02
2022-12-13T23:19:53.306Z,-1.03
2022-12-13T23:22:22.808Z,-1.04
2022-12-13T23:24:51.982Z,-1.06
2022-12-13T23:27:24.311Z,-1.06
2022-12-13T23:29:53.207Z,-1.08
2022-12-13T23:32:21.483Z,-1.08
2022-12-13T23:34:49.587Z,-1.08
2022-12-13T23:37:18.227Z,-1.10
2022-12-13T23:39:46.692Z,-1.12
2022-12-13T23:42:14.649Z,-1.14
2022-12-13T23:44:44.615Z,-1.14
2022-12-13T23:47:12.756Z,-1.14
2022-12-13T23:49:40.648Z,-1.13
2022-12-13T23:52:09.160Z,-1.12
2022-12-13T23:54:37.078Z,-1.07
2022-12-13T23:57:05.084Z,-1.03
2022-12-13T23:59:32.879Z,-1.02
